createdAt,value
2018-06-12T00:00:45.428Z,11.87
2018-06-12T00:01:45.700Z,11.86
2018-06-12T00:02:46.175Z,11.84
2018-06-12T00:03:46.651Z,11.82
2018-06-12T00:04:47.124Z,11.82
2018-06-12T00:05:47.602Z,11.80
2018-06-12T00:06:48.077Z,11.80
2018-06-12T00:07:48.552Z,11.79
2018-06-12T00:08:49.025Z,11.78
2018-06-12T00:09:49.502Z,11.77
2018-06-12T00:10:49.977Z,11.76
2018-06-12T00:11:50.450Z,11.74
2018-06-12T00:12:50.929Z,11.74
2018-06-12T00:13:51.603Z,11.73
2018-06-12T00:14:51.875Z,11.70
2018-06-12T00:15:52.348Z,11.70
2018-06-12T00:16:52.825Z,11.68
2018-06-12T00:17:53.298Z,11.68
2018-06-12T00:18:53.773Z,11.66
2018-06-12T00:19:54.246Z,11.66
2018-06-12T00:20:54.720Z,11.64
2018-06-12T00:21:55.193Z,11.63
2018-06-12T00:22:55.666Z,11.63
2018-06-12T00:23:56.139Z,11.61
2018-06-12T00:24:56.612Z,11.60
2018-06-12T00:25:57.090Z,11.60
2018-06-12T00:26:57.561Z,11.59
2018-06-12T00:27:58.035Z,11.58
2018-06-12T00:28:58.505Z,11.57
2018-06-12T00:29:58.976Z,11.57
2018-06-12T00:30:59.450Z,11.54
2018-06-12T00:31:59.922Z,11.54
2018-06-12T00:33:00.394Z,11.53
2018-06-12T00:34:00.866Z,11.52
2018-06-12T00:35:01.343Z,11.51
2018-06-12T00:36:01.813Z,11.50
2018-06-12T00:37:02.280Z,11.49
2018-06-12T00:38:02.753Z,11.48
2018-06-12T00:39:03.224Z,11.47
2018-06-12T00:40:03.695Z,11.46
2018-06-12T00:41:04.169Z,11.44
2018-06-12T00:42:04.638Z,11.43
2018-06-12T00:43:05.116Z,11.42
2018-06-12T00:44:05.579Z,11.41
2018-06-12T00:45:06.051Z,11.40
2018-06-12T00:46:06.520Z,11.39
2018-06-12T00:47:06.992Z,11.38
2018-06-12T00:48:07.467Z,11.37
2018-06-12T00:49:07.935Z,11.36
2018-06-12T00:50:08.406Z,11.36
2018-06-12T00:51:08.878Z,11.35
2018-06-12T00:52:09.349Z,11.33
2018-06-12T00:53:09.820Z,11.33
2018-06-12T00:54:10.292Z,11.31
2018-06-12T00:55:10.766Z,11.30
2018-06-12T00:56:11.236Z,11.29
2018-06-12T00:57:11.710Z,11.30
2018-06-12T00:58:12.181Z,11.26
2018-06-12T00:59:12.656Z,11.26
2018-06-12T01:00:13.128Z,11.25
2018-06-12T01:01:13.597Z,11.22
2018-06-12T01:02:14.071Z,11.22
2018-06-12T01:03:14.543Z,11.22
2018-06-12T01:04:15.018Z,11.20
2018-06-12T01:05:15.491Z,11.20
2018-06-12T01:06:15.964Z,11.19
2018-06-12T01:07:16.438Z,11.18
2018-06-12T01:08:16.913Z,11.16
2018-06-12T01:09:17.387Z,11.16
2018-06-12T01:10:17.862Z,11.16
2018-06-12T01:11:18.336Z,11.14
2018-06-12T01:12:18.808Z,11.15
2018-06-12T01:13:19.284Z,11.12
2018-06-12T01:14:19.762Z,11.12
2018-06-12T01:15:20.235Z,11.12
2018-06-12T01:16:20.708Z,11.10
2018-06-12T01:17:21.184Z,11.10
2018-06-12T01:18:21.659Z,11.09
2018-06-12T01:19:22.337Z,11.09
2018-06-12T01:20:22.610Z,11.08
2018-06-12T01:21:23.088Z,11.08
2018-06-12T01:22:23.559Z,11.05
2018-06-12T01:23:24.035Z,11.06
2018-06-12T01:24:24.508Z,11.04
2018-06-12T01:25:24.982Z,11.04
2018-06-12T01:26:25.458Z,11.04
2018-06-12T01:27:25.933Z,11.03
2018-06-12T01:28:26.406Z,11.02
2018-06-12T01:29:26.881Z,11.01
2018-06-12T01:30:27.354Z,11.01
2018-06-12T01:31:27.829Z,11.00
2018-06-12T01:32:28.301Z,11.00
2018-06-12T01:33:28.775Z,11.00
2018-06-12T01:34:29.250Z,10.99
2018-06-12T01:35:29.722Z,10.98
2018-06-12T01:36:30.249Z,10.96
2018-06-12T01:37:30.666Z,10.95
2018-06-12T01:38:31.140Z,10.94
2018-06-12T01:39:31.612Z,10.94
2018-06-12T01:40:32.085Z,10.92
2018-06-12T01:41:32.557Z,10.92
2018-06-12T01:42:33.031Z,10.91
2018-06-12T01:43:33.502Z,10.90
2018-06-12T01:44:33.974Z,10.92
2018-06-12T01:45:34.446Z,10.90
2018-06-12T01:46:34.920Z,10.89
2018-06-12T01:47:35.390Z,10.90
2018-06-12T01:48:35.860Z,10.88
2018-06-12T01:49:36.330Z,10.87
2018-06-12T01:50:36.802Z,10.84
2018-06-12T01:51:37.276Z,10.84
2018-06-12T01:52:37.745Z,10.82
2018-06-12T01:53:38.215Z,10.83
2018-06-12T01:54:38.687Z,10.82
2018-06-12T01:55:39.158Z,10.81
2018-06-12T01:56:39.627Z,10.79
2018-06-12T01:57:40.099Z,10.81
2018-06-12T01:58:40.572Z,10.79
2018-06-12T01:59:41.043Z,10.78
2018-06-12T02:00:41.515Z,10.78
2018-06-12T02:01:42.032Z,10.75
2018-06-12T02:02:42.456Z,10.72
2018-06-12T02:03:42.927Z,10.72
2018-06-12T02:04:43.399Z,10.72
2018-06-12T02:05:43.875Z,10.70
2018-06-12T02:07:44.814Z,10.70
2018-06-12T02:08:45.288Z,10.69
2018-06-12T02:09:45.759Z,10.68
2018-06-12T02:10:46.233Z,10.66
2018-06-12T02:11:46.706Z,10.66
2018-06-12T02:12:47.176Z,10.66
2018-06-12T02:13:47.650Z,10.65
2018-06-12T02:14:48.124Z,10.64
2018-06-12T02:15:48.599Z,10.63
2018-06-12T02:16:49.069Z,10.63
2018-06-12T02:17:49.545Z,10.62
2018-06-12T02:18:50.025Z,10.60
2018-06-12T02:19:50.493Z,10.60
2018-06-12T02:20:50.965Z,10.60
2018-06-12T02:21:51.442Z,10.58
2018-06-12T02:22:51.920Z,10.58
2018-06-12T02:23:52.391Z,10.58
2018-06-12T02:24:52.865Z,10.57
2018-06-12T02:25:53.345Z,10.56
2018-06-12T02:26:53.818Z,10.55
2018-06-12T02:27:54.291Z,10.54
2018-06-12T02:28:54.763Z,10.54
2018-06-12T02:29:55.239Z,10.54
2018-06-12T02:30:55.715Z,10.54
2018-06-12T02:31:56.190Z,10.52
2018-06-12T02:32:56.665Z,10.51
2018-06-12T02:33:57.139Z,10.51
2018-06-12T02:34:57.613Z,10.50
2018-06-12T02:35:58.089Z,10.49
2018-06-12T02:36:58.561Z,10.49
2018-06-12T02:37:59.052Z,10.47
2018-06-12T02:38:59.513Z,10.47
2018-06-12T02:39:59.992Z,10.46
2018-06-12T02:41:00.460Z,10.46
2018-06-12T02:42:00.941Z,10.45
2018-06-12T02:43:01.404Z,10.46
2018-06-12T02:44:01.878Z,10.45
2018-06-12T02:45:02.351Z,10.44
2018-06-12T02:46:02.826Z,10.44
2018-06-12T02:47:03.298Z,10.43
2018-06-12T02:48:03.771Z,10.42
2018-06-12T02:49:04.246Z,10.41
2018-06-12T02:50:04.716Z,10.40
2018-06-12T02:51:05.187Z,10.40
2018-06-12T02:52:05.659Z,10.40
2018-06-12T02:53:06.130Z,10.39
2018-06-12T02:54:06.604Z,10.37
2018-06-12T02:55:07.078Z,10.36
2018-06-12T02:56:07.547Z,10.36
2018-06-12T02:57:08.016Z,10.35
2018-06-12T02:58:08.488Z,10.34
2018-06-12T02:59:08.961Z,10.34
2018-06-12T03:00:09.433Z,10.32
2018-06-12T03:01:09.902Z,10.30
2018-06-12T03:02:10.373Z,10.30
2018-06-12T03:03:10.845Z,10.30
2018-06-12T03:04:11.316Z,10.29
2018-06-12T03:05:11.784Z,10.29
2018-06-12T03:06:12.458Z,10.29
2018-06-12T03:07:12.728Z,10.28
2018-06-12T03:08:13.201Z,10.26
2018-06-12T03:09:13.670Z,10.26
2018-06-12T03:10:14.142Z,10.25
2018-06-12T03:11:14.613Z,10.25
2018-06-12T03:12:15.084Z,10.24
2018-06-12T03:13:15.553Z,10.20
2018-06-12T03:14:16.027Z,10.21
2018-06-12T03:15:16.498Z,10.21
2018-06-12T03:16:16.970Z,10.20
2018-06-12T03:17:17.442Z,10.19
2018-06-12T03:18:17.915Z,10.18
2018-06-12T03:19:18.390Z,10.17
2018-06-12T03:20:18.860Z,10.18
2018-06-12T03:21:19.334Z,10.17
2018-06-12T03:22:19.803Z,10.14
2018-06-12T03:23:20.299Z,10.14
2018-06-12T03:24:20.752Z,10.11
2018-06-12T03:25:21.222Z,10.11
2018-06-12T03:26:21.696Z,10.10
2018-06-12T03:27:22.170Z,10.10
2018-06-12T03:28:22.643Z,10.09
2018-06-12T03:29:23.117Z,10.10
2018-06-12T03:30:23.592Z,10.08
2018-06-12T03:32:24.540Z,10.07
2018-06-12T03:33:25.014Z,10.06
2018-06-12T03:34:25.490Z,10.06
2018-06-12T03:35:25.965Z,10.04
2018-06-12T03:36:26.439Z,10.04
2018-06-12T03:37:26.918Z,10.04
2018-06-12T03:38:27.387Z,10.02
2018-06-12T03:39:27.862Z,10.01
2018-06-12T03:40:28.342Z,9.99
2018-06-12T03:41:28.814Z,10.00
2018-06-12T03:42:29.287Z,10.01
2018-06-12T03:43:29.762Z,10.02
2018-06-12T03:44:30.238Z,10.00
2018-06-12T03:45:30.715Z,9.98
2018-06-12T03:46:31.187Z,9.98
2018-06-12T03:47:31.659Z,9.96
2018-06-12T03:48:32.135Z,9.96
2018-06-12T03:49:32.608Z,9.94
2018-06-12T03:50:33.083Z,9.95
2018-06-12T03:51:33.556Z,9.95
2018-06-12T03:52:34.031Z,9.96
2018-06-12T03:53:34.508Z,9.94
2018-06-12T03:54:34.984Z,9.92
2018-06-12T03:55:35.448Z,9.93
2018-06-12T03:56:35.923Z,9.94
2018-06-12T03:57:36.413Z,9.93
2018-06-12T03:58:36.870Z,9.92
2018-06-12T03:59:37.341Z,9.92
2018-06-12T04:00:37.813Z,9.94
2018-06-12T04:01:38.286Z,9.94
2018-06-12T04:02:38.757Z,9.94
2018-06-12T04:03:39.230Z,9.95
2018-06-12T04:04:39.705Z,9.95
2018-06-12T04:05:40.174Z,9.96
2018-06-12T04:06:40.645Z,9.96
2018-06-12T04:07:41.127Z,9.96
2018-06-12T04:08:41.590Z,9.98
2018-06-12T04:09:42.060Z,9.99
2018-06-12T04:10:42.536Z,10.00
2018-06-12T04:11:43.000Z,10.00
2018-06-12T04:12:43.475Z,10.02
2018-06-12T04:13:43.943Z,10.03
2018-06-12T04:14:44.428Z,10.02
2018-06-12T04:15:44.887Z,10.04
2018-06-12T04:16:45.362Z,10.05
2018-06-12T04:17:45.827Z,10.06
2018-06-12T04:18:46.300Z,10.06
2018-06-12T04:19:46.770Z,10.07
2018-06-12T04:20:47.244Z,10.08
2018-06-12T04:21:47.716Z,10.10
2018-06-12T04:22:48.188Z,10.12
2018-06-12T04:23:48.659Z,10.13
2018-06-12T04:24:49.131Z,10.16
2018-06-12T04:25:49.602Z,10.18
2018-06-12T04:26:50.074Z,10.19
2018-06-12T04:27:50.599Z,10.23
2018-06-12T04:28:51.020Z,10.20
2018-06-12T04:29:51.495Z,10.20
2018-06-12T04:30:51.967Z,10.24
2018-06-12T04:31:52.442Z,10.24
2018-06-12T04:32:52.913Z,10.26
2018-06-12T04:33:53.385Z,10.29
2018-06-12T04:34:53.862Z,10.30
2018-06-12T04:35:54.334Z,10.33
2018-06-12T04:36:54.810Z,10.34
2018-06-12T04:37:55.284Z,10.35
2018-06-12T04:38:55.759Z,10.36
2018-06-12T04:39:56.233Z,10.38
2018-06-12T04:40:56.707Z,10.41
2018-06-12T04:41:57.183Z,10.43
2018-06-12T04:42:57.657Z,10.47
2018-06-12T04:43:58.139Z,10.48
2018-06-12T04:44:58.609Z,10.51
2018-06-12T04:45:59.084Z,10.54
2018-06-12T04:46:59.560Z,10.56
2018-06-12T04:48:00.036Z,10.59
2018-06-12T04:49:00.510Z,10.61
2018-06-12T04:50:00.984Z,10.62
2018-06-12T04:51:01.460Z,10.66
2018-06-12T04:52:01.935Z,10.67
2018-06-12T04:53:02.414Z,10.69
2018-06-12T04:54:02.885Z,10.73
2018-06-12T04:55:03.362Z,10.74
2018-06-12T04:56:03.837Z,10.75
2018-06-12T04:57:04.313Z,10.77
2018-06-12T04:58:04.987Z,10.79
2018-06-12T04:59:05.260Z,10.80
2018-06-12T05:00:05.739Z,10.82
2018-06-12T05:01:06.211Z,10.82
2018-06-12T05:02:06.684Z,10.86
2018-06-12T05:03:07.156Z,10.86
2018-06-12T05:04:07.635Z,10.88
2018-06-12T05:05:08.108Z,10.90
2018-06-12T05:06:08.577Z,10.90
2018-06-12T05:07:09.052Z,10.92
2018-06-12T05:08:09.577Z,10.92
2018-06-12T05:09:10.000Z,10.96
2018-06-12T05:10:10.474Z,10.99
2018-06-12T05:11:10.944Z,11.02
2018-06-12T05:12:11.418Z,11.05
2018-06-12T05:13:11.891Z,11.08
2018-06-12T05:14:12.362Z,11.10
2018-06-12T05:15:12.836Z,11.14
2018-06-12T05:16:13.310Z,11.15
2018-06-12T05:17:13.782Z,11.19
2018-06-12T05:18:14.253Z,11.24
2018-06-12T05:19:14.727Z,11.27
2018-06-12T05:20:15.198Z,11.30
2018-06-12T05:21:15.669Z,11.34
2018-06-12T05:22:16.139Z,11.36
2018-06-12T05:23:16.612Z,11.40
2018-06-12T05:24:17.083Z,11.44
2018-06-12T05:25:17.557Z,11.48
2018-06-12T05:26:18.029Z,11.51
2018-06-12T05:27:18.500Z,11.52
2018-06-12T05:28:18.972Z,11.58
2018-06-12T05:29:19.445Z,11.62
2018-06-12T05:30:19.914Z,11.66
2018-06-12T05:31:20.387Z,11.71
2018-06-12T05:32:20.859Z,11.74
2018-06-12T05:33:21.332Z,11.78
2018-06-12T05:34:21.803Z,11.82
2018-06-12T05:35:22.277Z,11.86
2018-06-12T05:36:22.749Z,11.90
2018-06-12T05:37:23.223Z,11.94
2018-06-12T05:38:23.695Z,11.98
2018-06-12T05:39:24.170Z,12.02
2018-06-12T05:40:24.644Z,12.05
2018-06-12T05:41:25.121Z,12.10
2018-06-12T05:42:25.589Z,12.12
2018-06-12T05:43:26.066Z,12.16
2018-06-12T05:44:26.538Z,12.21
2018-06-12T05:45:27.013Z,12.24
2018-06-12T05:46:27.487Z,12.27
2018-06-12T05:47:27.965Z,12.30
2018-06-12T05:48:28.438Z,12.33
2018-06-12T05:49:28.914Z,12.36
2018-06-12T05:50:29.388Z,12.37
2018-06-12T05:51:29.864Z,12.40
2018-06-12T05:52:30.339Z,12.43
2018-06-12T05:53:30.820Z,12.46
2018-06-12T05:54:31.289Z,12.48
2018-06-12T05:55:31.768Z,12.50
2018-06-12T05:56:32.242Z,12.54
2018-06-12T05:57:32.719Z,12.56
2018-06-12T05:58:33.194Z,12.60
2018-06-12T05:59:33.669Z,12.64
2018-06-12T06:00:34.145Z,12.66
2018-06-12T06:01:34.622Z,12.68
2018-06-12T06:02:35.101Z,12.72
2018-06-12T06:03:35.573Z,12.75
2018-06-12T06:04:36.050Z,12.79
2018-06-12T06:05:36.531Z,12.83
2018-06-12T06:06:37.001Z,12.88
2018-06-12T06:07:37.477Z,12.90
2018-06-12T06:08:37.952Z,12.95
2018-06-12T06:09:38.428Z,12.98
2018-06-12T06:10:38.917Z,13.01
2018-06-12T06:11:39.380Z,13.08
2018-06-12T06:12:39.855Z,13.11
2018-06-12T06:13:40.328Z,13.14
2018-06-12T06:14:40.804Z,13.20
2018-06-12T06:15:41.278Z,13.24
2018-06-12T06:16:41.752Z,13.30
2018-06-12T06:17:42.229Z,13.36
2018-06-12T06:18:42.701Z,13.40
2018-06-12T06:19:43.177Z,13.44
2018-06-12T06:20:43.651Z,13.51
2018-06-12T06:21:44.126Z,13.56
2018-06-12T06:23:45.075Z,13.65
2018-06-12T06:24:45.547Z,13.70
2018-06-12T06:25:46.024Z,13.76
2018-06-12T06:26:46.499Z,13.80
2018-06-12T06:27:46.969Z,13.88
2018-06-12T06:28:47.446Z,13.92
2018-06-12T06:29:47.955Z,14.00
2018-06-12T06:30:48.391Z,14.04
2018-06-12T06:31:48.863Z,14.10
2018-06-12T06:32:49.338Z,14.14
2018-06-12T06:33:49.812Z,14.20
2018-06-12T06:34:50.285Z,14.26
2018-06-12T06:35:50.757Z,14.31
2018-06-12T06:36:51.232Z,14.36
2018-06-12T06:37:51.705Z,14.42
2018-06-12T06:38:52.178Z,14.46
2018-06-12T06:39:52.650Z,14.50
2018-06-12T06:40:53.125Z,14.56
2018-06-12T06:41:53.598Z,14.62
2018-06-12T06:42:54.070Z,14.66
2018-06-12T06:43:54.542Z,14.73
2018-06-12T06:44:55.014Z,14.76
2018-06-12T06:45:55.488Z,14.81
2018-06-12T06:46:55.961Z,14.86
2018-06-12T06:47:56.434Z,14.90
2018-06-12T06:48:56.905Z,14.94
2018-06-12T06:49:57.377Z,14.98
2018-06-12T06:50:57.899Z,15.02
2018-06-12T06:51:58.323Z,15.06
2018-06-12T06:52:58.797Z,15.11
2018-06-12T06:53:59.269Z,15.14
2018-06-12T06:54:59.740Z,15.19
2018-06-12T06:56:00.213Z,15.22
2018-06-12T06:57:00.684Z,15.26
2018-06-12T06:58:01.159Z,15.29
2018-06-12T06:59:01.628Z,15.34
2018-06-12T07:00:02.100Z,15.38
2018-06-12T07:01:02.573Z,15.42
2018-06-12T07:02:03.045Z,15.44
2018-06-12T07:03:03.519Z,15.50
2018-06-12T07:04:03.990Z,15.52
2018-06-12T07:05:04.463Z,15.57
2018-06-12T07:06:04.935Z,15.62
2018-06-12T07:07:05.406Z,15.66
2018-06-12T07:08:05.883Z,15.71
2018-06-12T07:09:06.406Z,15.74
2018-06-12T07:10:06.825Z,15.79
2018-06-12T07:11:07.296Z,15.83
2018-06-12T07:12:07.773Z,15.88
2018-06-12T07:13:08.246Z,15.94
2018-06-12T07:14:08.723Z,16.00
2018-06-12T07:15:09.194Z,16.04
2018-06-12T07:16:09.669Z,16.09
2018-06-12T07:17:10.145Z,16.16
2018-06-12T07:18:10.620Z,16.21
2018-06-12T07:19:11.145Z,16.27
2018-06-12T07:20:11.570Z,16.33
2018-06-12T07:21:12.047Z,16.38
2018-06-12T07:22:12.523Z,16.45
2018-06-12T07:23:12.998Z,16.52
2018-06-12T07:24:13.474Z,16.56
2018-06-12T07:25:13.950Z,16.61
2018-06-12T07:26:14.432Z,16.67
2018-06-12T07:27:14.904Z,16.73
2018-06-12T07:28:15.381Z,16.79
2018-06-12T07:29:15.859Z,16.84
2018-06-12T07:30:16.336Z,16.88
2018-06-12T07:31:16.815Z,16.94
2018-06-12T07:32:17.297Z,17.00
2018-06-12T07:33:17.767Z,17.04
2018-06-12T07:34:18.248Z,17.08
2018-06-12T07:35:18.724Z,17.13
2018-06-12T07:36:19.204Z,17.18
2018-06-12T07:37:19.677Z,17.23
2018-06-12T07:38:20.154Z,17.26
2018-06-12T07:39:20.630Z,17.30
2018-06-12T07:40:21.113Z,17.35
2018-06-12T07:41:21.598Z,17.38
2018-06-12T07:42:22.062Z,17.41
2018-06-12T07:43:22.536Z,17.44
2018-06-12T07:44:23.013Z,17.47
2018-06-12T07:45:23.490Z,17.50
2018-06-12T07:46:23.969Z,17.52
2018-06-12T07:47:24.445Z,17.54
2018-06-12T07:48:24.925Z,17.58
2018-06-12T07:49:25.399Z,17.59
2018-06-12T07:50:25.874Z,17.61
2018-06-12T07:51:26.350Z,17.63
2018-06-12T07:52:26.827Z,17.66
2018-06-12T07:53:27.304Z,17.70
2018-06-12T07:54:27.779Z,17.71
2018-06-12T07:55:28.254Z,17.72
2018-06-12T07:56:28.735Z,17.74
2018-06-12T07:57:29.207Z,17.77
2018-06-12T07:58:29.683Z,17.78
2018-06-12T07:59:30.157Z,17.79
2018-06-12T08:00:30.634Z,17.81
2018-06-12T08:01:31.109Z,17.82
2018-06-12T08:02:31.588Z,17.82
2018-06-12T08:03:32.060Z,17.84
2018-06-12T08:04:32.535Z,17.86
2018-06-12T08:05:33.013Z,17.87
2018-06-12T08:06:33.486Z,17.89
2018-06-12T08:07:33.960Z,17.90
2018-06-12T08:08:34.435Z,17.88
2018-06-12T08:09:34.915Z,17.90
2018-06-12T08:10:35.385Z,17.90
2018-06-12T08:11:35.868Z,17.92
2018-06-12T08:12:36.336Z,17.94
2018-06-12T08:13:36.810Z,17.94
2018-06-12T08:14:37.284Z,17.96
2018-06-12T08:15:37.757Z,17.97
2018-06-12T08:16:38.233Z,17.98
2018-06-12T08:17:38.708Z,17.98
2018-06-12T08:18:39.193Z,17.99
2018-06-12T08:19:39.661Z,18.01
2018-06-12T08:20:40.131Z,18.00
2018-06-12T08:21:40.604Z,18.02
2018-06-12T08:22:41.078Z,18.02
2018-06-12T08:23:41.553Z,18.02
2018-06-12T08:24:42.028Z,18.03
2018-06-12T08:25:42.499Z,18.02
2018-06-12T08:26:42.982Z,18.03
2018-06-12T08:27:43.448Z,18.04
2018-06-12T08:28:43.923Z,18.04
2018-06-12T08:29:44.529Z,18.04
2018-06-12T08:30:44.872Z,18.03
2018-06-12T08:31:45.344Z,18.04
2018-06-12T08:32:45.817Z,18.02
2018-06-12T08:33:46.297Z,18.02
2018-06-12T08:34:46.767Z,18.04
2018-06-12T08:35:47.239Z,18.03
2018-06-12T08:36:47.713Z,18.01
2018-06-12T08:37:48.185Z,18.02
2018-06-12T08:38:48.660Z,18.02
2018-06-12T08:39:49.195Z,18.00
2018-06-12T08:40:49.638Z,18.01
2018-06-12T08:41:50.081Z,18.01
2018-06-12T08:42:50.557Z,18.01
2018-06-12T08:43:51.025Z,18.02
2018-06-12T08:44:51.500Z,18.03
2018-06-12T08:45:51.972Z,18.00
2018-06-12T08:46:52.451Z,18.00
2018-06-12T08:47:52.919Z,17.98
2018-06-12T08:48:53.392Z,17.98
2018-06-12T08:49:53.868Z,17.99
2018-06-12T08:50:54.340Z,18.00
2018-06-12T08:51:54.815Z,18.00
2018-06-12T08:52:55.287Z,18.02
2018-06-12T08:53:55.760Z,18.03
2018-06-12T08:54:56.233Z,18.05
2018-06-12T08:55:56.703Z,18.06
2018-06-12T08:56:57.177Z,18.06
2018-06-12T08:57:57.651Z,18.06
2018-06-12T08:58:58.126Z,18.08
2018-06-12T08:59:58.597Z,18.09
2018-06-12T09:00:59.072Z,18.11
2018-06-12T09:01:59.546Z,18.14
2018-06-12T09:03:00.019Z,18.14
2018-06-12T09:04:00.490Z,18.16
2018-06-12T09:05:00.963Z,18.18
2018-06-12T09:06:01.439Z,18.20
2018-06-12T09:07:01.909Z,18.24
2018-06-12T09:08:02.383Z,18.25
2018-06-12T09:09:02.855Z,18.27
2018-06-12T09:10:03.340Z,18.30
2018-06-12T09:11:03.801Z,18.31
2018-06-12T09:12:04.274Z,18.33
2018-06-12T09:13:04.747Z,18.34
2018-06-12T09:14:05.220Z,18.38
2018-06-12T09:15:05.693Z,18.38
2018-06-12T09:16:06.165Z,18.41
2018-06-12T09:17:06.639Z,18.41
2018-06-12T09:18:07.111Z,18.44
2018-06-12T09:19:07.587Z,18.46
2018-06-12T09:20:08.058Z,18.49
2018-06-12T09:21:08.532Z,18.49
2018-06-12T09:22:09.005Z,18.52
2018-06-12T09:23:09.476Z,18.54
2018-06-12T09:24:09.950Z,18.58
2018-06-12T09:25:10.437Z,18.59
2018-06-12T09:26:10.897Z,18.62
2018-06-12T09:27:11.369Z,18.64
2018-06-12T09:28:11.845Z,18.66
2018-06-12T09:29:12.315Z,18.68
2018-06-12T09:30:12.789Z,18.70
2018-06-12T09:31:13.263Z,18.72
2018-06-12T09:32:13.736Z,18.74
2018-06-12T09:33:14.208Z,18.75
2018-06-12T09:34:14.678Z,18.78
2018-06-12T09:35:15.204Z,18.80
2018-06-12T09:36:15.626Z,18.81
2018-06-12T09:37:16.099Z,18.84
2018-06-12T09:38:16.571Z,18.86
2018-06-12T09:39:17.045Z,18.86
2018-06-12T09:40:17.568Z,18.90
2018-06-12T09:41:17.990Z,18.92
2018-06-12T09:42:18.466Z,18.95
2018-06-12T09:43:18.937Z,18.95
2018-06-12T09:44:19.413Z,18.99
2018-06-12T09:45:19.885Z,19.02
2018-06-12T09:46:20.357Z,19.02
2018-06-12T09:47:20.830Z,19.05
2018-06-12T09:48:21.301Z,19.07
2018-06-12T09:49:21.776Z,19.09
2018-06-12T09:50:22.248Z,19.12
2018-06-12T09:51:22.723Z,19.15
2018-06-12T09:52:23.194Z,19.16
2018-06-12T09:53:23.668Z,19.20
2018-06-12T09:54:24.144Z,19.22
2018-06-12T09:55:24.615Z,19.25
2018-06-12T09:56:25.088Z,19.28
2018-06-12T09:57:25.561Z,19.31
2018-06-12T09:58:26.034Z,19.36
2018-06-12T09:59:26.507Z,19.35
2018-06-12T10:00:27.032Z,19.38
2018-06-12T10:01:27.453Z,19.41
2018-06-12T10:02:27.929Z,19.43
2018-06-12T10:03:28.400Z,19.46
2018-06-12T10:04:28.875Z,19.49
2018-06-12T10:05:29.355Z,19.52
2018-06-12T10:06:29.820Z,19.54
2018-06-12T10:07:30.296Z,19.56
2018-06-12T10:08:30.973Z,19.60
2018-06-12T10:09:31.243Z,19.62
2018-06-12T10:10:31.715Z,19.64
2018-06-12T10:11:32.194Z,19.66
2018-06-12T10:12:32.661Z,19.68
2018-06-12T10:13:33.134Z,19.70
2018-06-12T10:14:33.610Z,19.71
2018-06-12T10:15:34.084Z,19.74
2018-06-12T10:16:34.556Z,19.75
2018-06-12T10:17:35.029Z,19.75
2018-06-12T10:18:35.502Z,19.77
2018-06-12T10:19:35.977Z,19.78
2018-06-12T10:20:36.451Z,19.80
2018-06-12T10:21:36.923Z,19.79
2018-06-12T10:22:37.397Z,19.81
2018-06-12T10:23:37.870Z,19.80
2018-06-12T10:24:38.344Z,19.80
2018-06-12T10:25:38.818Z,19.82
2018-06-12T10:26:39.294Z,19.81
2018-06-12T10:28:40.237Z,19.84
2018-06-12T10:29:40.714Z,19.82
2018-06-12T10:30:41.185Z,19.84
2018-06-12T10:31:41.658Z,19.84
2018-06-12T10:32:42.133Z,19.84
2018-06-12T10:33:42.603Z,19.86
2018-06-12T10:34:43.077Z,19.88
2018-06-12T10:35:43.552Z,19.88
2018-06-12T10:36:44.029Z,19.89
2018-06-12T10:37:44.498Z,19.90
2018-06-12T10:38:44.971Z,19.92
2018-06-12T10:39:45.446Z,19.92
2018-06-12T10:40:45.920Z,19.93
2018-06-12T10:41:46.393Z,19.94
2018-06-12T10:42:46.872Z,19.95
2018-06-12T10:43:47.343Z,19.97
2018-06-12T10:44:47.813Z,20.00
2018-06-12T10:45:48.290Z,20.02
2018-06-12T10:46:48.762Z,20.03
2018-06-12T10:47:49.236Z,20.06
2018-06-12T10:48:49.712Z,20.08
2018-06-12T10:49:50.186Z,20.08
2018-06-12T10:50:50.657Z,20.12
2018-06-12T10:51:51.132Z,20.14
2018-06-12T10:52:51.605Z,20.17
2018-06-12T10:53:52.079Z,20.18
2018-06-12T10:54:52.553Z,20.21
2018-06-12T10:55:53.079Z,20.23
2018-06-12T10:56:53.500Z,20.26
2018-06-12T10:57:53.974Z,20.28
2018-06-12T10:58:54.448Z,20.30
2018-06-12T10:59:54.923Z,20.32
2018-06-12T11:00:55.398Z,20.32
2018-06-12T11:01:55.871Z,20.34
2018-06-12T11:02:56.344Z,20.38
2018-06-12T11:03:56.819Z,20.39
2018-06-12T11:04:57.292Z,20.42
2018-06-12T11:05:57.767Z,20.44
2018-06-12T11:06:58.242Z,20.46
2018-06-12T11:07:58.720Z,20.46
2018-06-12T11:08:59.189Z,20.47
2018-06-12T11:09:59.662Z,20.51
2018-06-12T11:11:00.189Z,20.52
2018-06-12T11:12:00.612Z,20.53
2018-06-12T11:13:01.085Z,20.54
2018-06-12T11:14:01.562Z,20.56
2018-06-12T11:15:02.032Z,20.56
2018-06-12T11:16:02.512Z,20.58
2018-06-12T11:17:02.981Z,20.60
2018-06-12T11:18:03.458Z,20.61
2018-06-12T11:19:03.931Z,20.62
2018-06-12T11:20:04.409Z,20.63
2018-06-12T11:21:04.876Z,20.65
2018-06-12T11:22:05.353Z,20.65
2018-06-12T11:23:05.829Z,20.66
2018-06-12T11:24:06.302Z,20.67
2018-06-12T11:25:06.776Z,20.70
2018-06-12T11:26:07.300Z,20.70
2018-06-12T11:27:07.725Z,20.70
2018-06-12T11:28:08.200Z,20.71
2018-06-12T11:29:08.676Z,20.72
2018-06-12T11:30:09.147Z,20.73
2018-06-12T11:31:09.620Z,20.74
2018-06-12T11:32:10.095Z,20.76
2018-06-12T11:33:10.649Z,20.78
2018-06-12T11:34:11.043Z,20.79
2018-06-12T11:35:11.519Z,20.80
2018-06-12T11:36:11.998Z,20.80
2018-06-12T11:37:12.468Z,20.82
2018-06-12T11:38:12.941Z,20.84
2018-06-12T11:39:13.420Z,20.86
2018-06-12T11:40:13.892Z,20.88
2018-06-12T11:41:14.413Z,20.88
2018-06-12T11:42:14.837Z,20.90
2018-06-12T11:43:15.312Z,20.93
2018-06-12T11:44:15.787Z,20.94
2018-06-12T11:45:16.262Z,20.94
2018-06-12T11:46:16.787Z,20.97
2018-06-12T11:47:17.211Z,20.99
2018-06-12T11:48:17.685Z,21.00
2018-06-12T11:49:18.159Z,21.03
2018-06-12T11:50:18.635Z,21.03
2018-06-12T11:51:19.109Z,21.05
2018-06-12T11:52:19.584Z,21.05
2018-06-12T11:53:20.059Z,21.07
2018-06-12T11:54:20.535Z,21.06
2018-06-12T11:55:21.005Z,21.09
2018-06-12T11:56:21.483Z,21.11
2018-06-12T11:57:21.955Z,21.10
2018-06-12T11:58:22.431Z,21.13
2018-06-12T11:59:22.906Z,21.13
2018-06-12T12:00:23.382Z,21.14
2018-06-12T12:01:23.857Z,21.14
2018-06-12T12:02:24.329Z,21.14
2018-06-12T12:03:24.803Z,21.14
2018-06-12T12:04:25.279Z,21.15
2018-06-12T12:05:25.753Z,21.14
2018-06-12T12:06:26.227Z,21.16
2018-06-12T12:07:26.704Z,21.17
2018-06-12T12:08:27.178Z,21.17
2018-06-12T12:09:27.651Z,21.16
2018-06-12T12:10:28.126Z,21.16
2018-06-12T12:11:28.601Z,21.16
2018-06-12T12:12:29.075Z,21.18
2018-06-12T12:13:29.550Z,21.17
2018-06-12T12:14:30.027Z,21.18
2018-06-12T12:15:30.501Z,21.18
2018-06-12T12:16:30.974Z,21.18
2018-06-12T12:18:31.923Z,21.18
2018-06-12T12:19:32.397Z,21.16
2018-06-12T12:20:32.872Z,21.15
2018-06-12T12:21:33.347Z,21.15
2018-06-12T12:22:33.821Z,21.15
2018-06-12T12:23:34.299Z,21.14
2018-06-12T12:24:34.771Z,21.14
2018-06-12T12:25:35.245Z,21.11
2018-06-12T12:26:35.719Z,21.11
2018-06-12T12:27:36.197Z,21.10
2018-06-12T12:28:36.731Z,21.09
2018-06-12T12:29:37.141Z,21.07
2018-06-12T12:30:37.618Z,21.05
2018-06-12T12:31:38.096Z,21.03
2018-06-12T12:32:38.565Z,21.00
2018-06-12T12:33:39.043Z,20.99
2018-06-12T12:34:39.516Z,21.00
2018-06-12T12:35:39.993Z,20.97
2018-06-12T12:36:40.466Z,20.96
2018-06-12T12:37:41.143Z,20.94
2018-06-12T12:38:41.416Z,20.94
2018-06-12T12:39:41.890Z,20.92
2018-06-12T12:40:42.363Z,20.92
2018-06-12T12:41:42.836Z,20.89
2018-06-12T12:42:43.315Z,20.87
2018-06-12T12:43:43.839Z,20.88
2018-06-12T12:44:44.262Z,20.86
2018-06-12T12:45:44.735Z,20.85
2018-06-12T12:46:45.208Z,20.84
2018-06-12T12:47:45.685Z,20.82
2018-06-12T12:48:46.158Z,20.82
2018-06-12T12:49:46.636Z,20.81
2018-06-12T12:50:47.105Z,20.80
2018-06-12T12:51:47.581Z,20.77
2018-06-12T12:52:48.056Z,20.77
2018-06-12T12:53:48.528Z,20.76
2018-06-12T12:54:49.004Z,20.74
2018-06-12T12:55:49.478Z,20.73
2018-06-12T12:56:49.960Z,20.72
2018-06-12T12:57:50.426Z,20.70
2018-06-12T12:58:50.900Z,20.68
2018-06-12T12:59:51.417Z,20.66
2018-06-12T13:00:51.850Z,20.64
2018-06-12T13:01:52.323Z,20.64
2018-06-12T13:02:52.797Z,20.60
2018-06-12T13:03:53.273Z,20.58
2018-06-12T13:04:53.747Z,20.56